Time;durP1;ratioP1;P1;durP2;ratioP2;P2;SDS_P1;SDS_P2;PMS_P1;PMS_P2;Temp;Humidity;BMP_temperature;BMP_pressure;BME280_temperature;BME280_humidity;BME280_pressure;Samples;Min_cycle;Max_cycle;Signal;HPM_P1;HPM_P2
2021/10/25 00:01:39;;;;;;;6.20;4.00;;;;;;;;;;4938373;29;20206;-87
2021/10/25 00:04:08;;;;;;;4.50;3.67;;;;;;;;;;4938815;29;20289;-87
2021/10/25 00:06:38;;;;;;;4.40;4.00;;;;;;;;;;4938658;29;20257;-87
2021/10/25 00:09:05;;;;;;;6.30;4.07;;;;;;;;;;4938664;29;20627;-87
2021/10/25 00:11:33;;;;;;;4.00;3.50;;;;;;;;;;4938621;29;20672;-87
2021/10/25 00:14:00;;;;;;;4.00;3.60;;;;;;;;;;4938844;29;20234;-87
2021/10/25 00:16:27;;;;;;;5.13;3.73;;;;;;;;;;4938316;29;20206;-87
2021/10/25 00:18:54;;;;;;;4.13;3.73;;;;;;;;;;4938334;29;20257;-88
2021/10/25 00:21:23;;;;;;;4.13;2.97;;;;;;;;;;4938508;29;20285;-87
2021/10/25 00:23:50;;;;;;;4.27;3.83;;;;;;;;;;4938191;29;20203;-87
2021/10/25 00:26:18;;;;;;;4.50;4.13;;;;;;;;;;4938347;29;20337;-87
2021/10/25 00:28:45;;;;;;;3.67;3.20;;;;;;;;;;4938291;29;20210;-88
2021/10/25 00:31:12;;;;;;;4.67;4.17;;;;;;;;;;4938004;29;20249;-88
2021/10/25 00:33:39;;;;;;;5.40;3.27;;;;;;;;;;4938379;29;20265;-88
2021/10/25 00:36:07;;;;;;;4.37;3.67;;;;;;;;;;4937850;29;20672;-87
2021/10/25 00:38:36;;;;;;;4.60;3.80;;;;;;;;;;4937790;29;20206;-87
2021/10/25 00:41:03;;;;;;;6.30;4.10;;;;;;;;;;4938280;29;20591;-87
2021/10/25 00:43:30;;;;;;;4.87;3.83;;;;;;;;;;4937803;29;20743;-88
2021/10/25 00:45:58;;;;;;;6.30;4.67;;;;;;;;;;4937569;29;20246;-88
2021/10/25 00:48:25;;;;;;;5.40;4.20;;;;;;;;;;4938148;29;20307;-87
2021/10/25 00:50:53;;;;;;;4.10;3.63;;;;;;;;;;4937612;29;20202;-88
2021/10/25 00:53:20;;;;;;;4.00;3.70;;;;;;;;;;4937668;29;20301;-89
2021/10/25 00:55:49;;;;;;;4.33;3.60;;;;;;;;;;4937953;29;20207;-88
2021/10/25 00:58:17;;;;;;;5.40;3.97;;;;;;;;;;4937593;29;20211;-87
2021/10/25 01:00:44;;;;;;;4.47;4.07;;;;;;;;;;4937606;29;20258;-88
2021/10/25 01:03:12;;;;;;;6.30;5.30;;;;;;;;;;4937445;29;20206;-88
2021/10/25 01:05:39;;;;;;;5.47;4.90;;;;;;;;;;4937546;29;20242;-88
2021/10/25 01:08:07;;;;;;;4.80;4.40;;;;;;;;;;4937361;29;20202;-87
2021/10/25 01:10:34;;;;;;;5.20;4.30;;;;;;;;;;4937289;29;20244;-88
2021/10/25 01:13:04;;;;;;;5.87;4.13;;;;;;;;;;4937701;29;20245;-88
2021/10/25 01:15:31;;;;;;;4.93;4.53;;;;;;;;;;4937261;29;20203;-88
2021/10/25 01:18:00;;;;;;;4.83;4.33;;;;;;;;;;4937247;29;20266;-88
2021/10/25 01:20:30;;;;;;;4.33;3.90;;;;;;;;;;4937813;29;20285;-88
2021/10/25 01:22:58;;;;;;;4.70;4.00;;;;;;;;;;4937087;29;20285;-88
2021/10/25 01:25:26;;;;;;;7.43;4.43;;;;;;;;;;4937120;29;20265;-88
2021/10/25 01:27:53;;;;;;;8.27;4.37;;;;;;;;;;4937210;29;20273;-88
2021/10/25 01:30:21;;;;;;;4.47;4.07;;;;;;;;;;4936891;29;20270;-88
2021/10/25 01:32:49;;;;;;;4.40;3.60;;;;;;;;;;4937009;29;20234;-88
2021/10/25 01:35:17;;;;;;;4.83;4.37;;;;;;;;;;4937511;29;20199;-89
2021/10/25 01:37:46;;;;;;;7.70;4.17;;;;;;;;;;4937192;29;20198;-89
2021/10/25 01:40:14;;;;;;;4.60;4.20;;;;;;;;;;4936989;29;20759;-88
2021/10/25 01:42:42;;;;;;;4.67;4.27;;;;;;;;;;4937059;29;20203;-89
2021/10/25 01:45:10;;;;;;;6.80;3.80;;;;;;;;;;4936900;29;20687;-88
2021/10/25 01:47:38;;;;;;;4.03;3.63;;;;;;;;;;4937131;29;20296;-89
2021/10/25 01:50:06;;;;;;;4.27;3.83;;;;;;;;;;4936774;29;20206;-89
2021/10/25 01:52:34;;;;;;;4.47;4.07;;;;;;;;;;4937256;29;20261;-89
2021/10/25 01:55:03;;;;;;;4.80;3.80;;;;;;;;;;4937209;29;20587;-89
2021/10/25 01:57:31;;;;;;;5.10;3.57;;;;;;;;;;4936891;29;20198;-90
2021/10/25 01:59:58;;;;;;;4.13;3.73;;;;;;;;;;4936808;29;20195;-90
2021/10/25 02:02:26;;;;;;;5.50;4.73;;;;;;;;;;4937124;29;20609;-90
2021/10/25 02:04:53;;;;;;;9.57;4.23;;;;;;;;;;4936655;29;20242;-91
2021/10/25 02:07:20;;;;;;;5.17;4.20;;;;;;;;;;4936040;29;20230;-91
2021/10/25 02:09:47;;;;;;;4.50;4.10;;;;;;;;;;4936560;29;20198;-92
2021/10/25 02:12:16;;;;;;;4.80;3.80;;;;;;;;;;4936502;29;20198;-91
2021/10/25 02:14:44;;;;;;;5.83;3.87;;;;;;;;;;4936419;29;20202;-91
2021/10/25 02:17:11;;;;;;;4.47;3.93;;;;;;;;;;4936527;29;20198;-91
2021/10/25 02:19:38;;;;;;;5.23;4.23;;;;;;;;;;4936366;29;20238;-91
2021/10/25 02:22:06;;;;;;;7.53;4.87;;;;;;;;;;4936577;29;20286;-91
2021/10/25 02:24:34;;;;;;;7.53;4.47;;;;;;;;;;4936508;29;20273;-92
2021/10/25 02:27:03;;;;;;;8.50;5.17;;;;;;;;;;4936105;29;20233;-91
2021/10/25 02:29:35;;;;;;;5.47;3.90;;;;;;;;;;4936007;29;20246;-92
2021/10/25 02:32:03;;;;;;;7.93;4.43;;;;;;;;;;4936277;29;20286;-91
2021/10/25 02:34:31;;;;;;;10.47;7.27;;;;;;;;;;4936014;29;20202;-92
2021/10/25 02:36:58;;;;;;;17.20;11.63;;;;;;;;;;4935944;29;20250;-91
2021/10/25 02:39:27;;;;;;;23.37;16.47;;;;;;;;;;4936419;29;20206;-92
2021/10/25 02:41:55;;;;;;;18.13;11.93;;;;;;;;;;4936433;29;20202;-91
2021/10/25 02:44:23;;;;;;;15.47;11.00;;;;;;;;;;4936239;29;20203;-91
2021/10/25 02:46:51;;;;;;;13.27;7.57;;;;;;;;;;4935993;29;20230;-93
2021/10/25 02:49:19;;;;;;;11.97;6.93;;;;;;;;;;4936212;29;20207;-91
2021/10/25 02:51:46;;;;;;;6.07;5.23;;;;;;;;;;4936123;29;20202;-91
2021/10/25 02:54:14;;;;;;;7.00;5.43;;;;;;;;;;4935877;29;20298;-91
2021/10/25 02:56:41;;;;;;;10.93;7.53;;;;;;;;;;4936208;29;20625;-91
2021/10/25 02:59:09;;;;;;;10.77;8.07;;;;;;;;;;4936006;29;20210;-91
2021/10/25 03:01:37;;;;;;;10.93;7.37;;;;;;;;;;4935776;29;20202;-90
2021/10/25 03:04:06;;;;;;;10.23;7.83;;;;;;;;;;4935598;29;20261;-89
2021/10/25 03:06:34;;;;;;;11.63;8.10;;;;;;;;;;4935699;29;20269;-90
2021/10/25 03:09:01;;;;;;;9.17;6.87;;;;;;;;;;4936099;29;20202;-90
2021/10/25 03:11:29;;;;;;;12.67;8.80;;;;;;;;;;4945769;29;20683;-92
2021/10/25 03:13:56;;;;;;;10.17;9.07;;;;;;;;;;4954807;29;20212;-93
2021/10/25 03:16:24;;;;;;;23.67;15.93;;;;;;;;;;4955046;29;20292;-93
2021/10/25 03:18:51;;;;;;;20.07;12.00;;;;;;;;;;4953841;28;20688;-94
2021/10/25 03:21:22;;;;;;;8.90;6.43;;;;;;;;;;4954948;29;20657;-90
2021/10/25 03:23:50;;;;;;;8.97;6.27;;;;;;;;;;4954728;29;20186;-89
2021/10/25 03:26:17;;;;;;;5.90;4.70;;;;;;;;;;4954180;29;20205;-90
2021/10/25 03:28:45;;;;;;;7.07;4.67;;;;;;;;;;4954624;29;20201;-90
2021/10/25 03:31:15;;;;;;;6.13;5.23;;;;;;;;;;4954610;29;20232;-89
2021/10/25 03:33:43;;;;;;;5.73;5.17;;;;;;;;;;4955894;29;20208;-90
2021/10/25 03:36:10;;;;;;;7.70;4.47;;;;;;;;;;4954618;29;20217;-90
2021/10/25 03:38:40;;;;;;;5.50;3.87;;;;;;;;;;4955005;29;20202;-90
2021/10/25 03:41:13;;;;;;;5.37;4.40;;;;;;;;;;4954364;29;20848;-90
2021/10/25 03:43:46;;;;;;;4.93;4.13;;;;;;;;;;4954428;29;20268;-89
2021/10/25 03:46:19;;;;;;;5.37;3.77;;;;;;;;;;4954340;29;20190;-89
2021/10/25 03:48:51;;;;;;;25.03;15.63;;;;;;;;;;4954193;29;20209;-89
2021/10/25 03:51:19;;;;;;;122.13;64.37;;;;;;;;;;4954370;29;20281;-89
2021/10/25 03:53:55;;;;;;;45.03;29.73;;;;;;;;;;4954562;29;20241;-90
2021/10/25 03:56:38;;;;;;;28.77;19.87;;;;;;;;;;4954398;29;20205;-89
2021/10/25 04:13:28;;;;;;;9.77;7.70;;;;;;;;;;4953789;29;20257;-87
2021/10/25 04:27:10;;;;;;;88.87;60.00;;;;;;;;;;4953936;29;20245;-87
2021/10/25 04:29:37;;;;;;;15.60;13.50;;;;;;;;;;4954613;28;20245;-87
2021/10/25 04:32:07;;;;;;;39.70;31.63;;;;;;;;;;4956760;29;20217;-87
2021/10/25 04:34:34;;;;;;;32.70;25.73;;;;;;;;;;4957052;29;20202;-87
2021/10/25 04:37:01;;;;;;;32.57;26.20;;;;;;;;;;4957202;29;20317;-87
2021/10/25 04:39:29;;;;;;;131.70;78.73;;;;;;;;;;4957376;29;20261;-87
2021/10/25 04:41:57;;;;;;;151.30;97.77;;;;;;;;;;4956973;29;20222;-87
2021/10/25 04:44:26;;;;;;;53.70;39.63;;;;;;;;;;4956646;29;20206;-87
2021/10/25 04:46:53;;;;;;;18.00;14.33;;;;;;;;;;4956828;29;20264;-87
2021/10/25 04:49:21;;;;;;;25.87;17.80;;;;;;;;;;4956876;29;20578;-87
2021/10/25 04:51:48;;;;;;;14.10;10.83;;;;;;;;;;4956508;29;20663;-85
2021/10/25 04:54:15;;;;;;;17.77;11.97;;;;;;;;;;4956775;29;20212;-87
2021/10/25 04:56:42;;;;;;;24.43;17.53;;;;;;;;;;4956222;29;20198;-86
2021/10/25 04:59:11;;;;;;;13.87;11.07;;;;;;;;;;4956646;29;20209;-86
2021/10/25 05:01:38;;;;;;;13.13;9.00;;;;;;;;;;4956386;29;20261;-86
2021/10/25 05:04:06;;;;;;;18.47;11.43;;;;;;;;;;4956438;29;20293;-86
2021/10/25 05:06:33;;;;;;;24.83;17.13;;;;;;;;;;4956477;29;20351;-87
2021/10/25 05:09:00;;;;;;;18.87;13.83;;;;;;;;;;4956684;29;20206;-86
2021/10/25 05:11:27;;;;;;;9.37;8.33;;;;;;;;;;4956414;29;20213;-86
2021/10/25 05:13:55;;;;;;;11.13;7.57;;;;;;;;;;4956161;29;20210;-86
2021/10/25 05:16:24;;;;;;;15.20;8.03;;;;;;;;;;4956055;29;20241;-86
2021/10/25 05:18:51;;;;;;;7.83;6.40;;;;;;;;;;4955916;29;20238;-87
2021/10/25 05:21:19;;;;;;;13.20;10.47;;;;;;;;;;4955943;29;20261;-86
2021/10/25 05:23:46;;;;;;;18.13;14.80;;;;;;;;;;4956241;29;20683;-86
2021/10/25 05:26:13;;;;;;;15.47;12.13;;;;;;;;;;4955737;29;20202;-86
2021/10/25 05:28:41;;;;;;;10.23;9.20;;;;;;;;;;4955708;29;20257;-86
2021/10/25 05:31:11;;;;;;;10.70;8.07;;;;;;;;;;4955596;29;20244;-87
2021/10/25 05:33:40;;;;;;;9.13;7.73;;;;;;;;;;4956128;29;20632;-87
2021/10/25 05:36:09;;;;;;;8.30;7.37;;;;;;;;;;4956005;29;20209;-87
2021/10/25 05:38:38;;;;;;;14.57;11.50;;;;;;;;;;4955784;29;20221;-87
2021/10/25 05:41:05;;;;;;;15.40;11.13;;;;;;;;;;4954965;28;20265;-87
2021/10/25 05:43:33;;;;;;;9.33;7.00;;;;;;;;;;4955573;29;20206;-87
2021/10/25 05:46:00;;;;;;;7.23;5.27;;;;;;;;;;4955848;29;20194;-88
2021/10/25 05:48:27;;;;;;;8.37;6.37;;;;;;;;;;4956332;29;20586;-87
2021/10/25 05:50:56;;;;;;;8.27;5.90;;;;;;;;;;4956123;29;20281;-89
2021/10/25 05:53:24;;;;;;;7.33;5.93;;;;;;;;;;4956320;29;20639;-89
2021/10/25 05:55:51;;;;;;;12.47;7.50;;;;;;;;;;4956102;29;20723;-90
2021/10/25 05:58:20;;;;;;;8.70;6.17;;;;;;;;;;4956228;29;20225;-89
2021/10/25 06:00:52;;;;;;;24.30;14.50;;;;;;;;;;4955856;29;20241;-89
2021/10/25 06:03:22;;;;;;;25.57;12.43;;;;;;;;;;4956046;29;20206;-89
2021/10/25 06:05:50;;;;;;;23.10;11.13;;;;;;;;;;4955777;29;20666;-89
2021/10/25 06:08:19;;;;;;;26.33;17.03;;;;;;;;;;4955819;29;20198;-89
2021/10/25 06:10:47;;;;;;;61.23;33.90;;;;;;;;;;4955694;29;20285;-89
2021/10/25 06:13:21;;;;;;;32.53;24.00;;;;;;;;;;4955788;29;20206;-89
2021/10/25 06:15:56;;;;;;;27.27;20.23;;;;;;;;;;4955576;29;20200;-89
2021/10/25 06:18:24;;;;;;;17.17;13.10;;;;;;;;;;4955570;29;20221;-89
2021/10/25 06:20:51;;;;;;;18.30;11.57;;;;;;;;;;4955776;29;20285;-89
2021/10/25 06:23:21;;;;;;;14.43;10.40;;;;;;;;;;4955427;29;20675;-89
2021/10/25 06:25:52;;;;;;;17.03;12.63;;;;;;;;;;4955433;29;20674;-89
2021/10/25 06:28:19;;;;;;;18.50;11.90;;;;;;;;;;4955492;29;20209;-89
2021/10/25 06:30:54;;;;;;;15.83;10.97;;;;;;;;;;4955319;28;20734;-89
2021/10/25 06:33:22;;;;;;;13.83;9.83;;;;;;;;;;4955752;29;20755;-89
2021/10/25 06:36:01;;;;;;;10.97;8.10;;;;;;;;;;4954914;29;20208;-88
2021/10/25 06:38:33;;;;;;;15.63;9.40;;;;;;;;;;4955272;29;20296;-88
2021/10/25 06:41:01;;;;;;;12.73;10.30;;;;;;;;;;4955186;29;20186;-89
2021/10/25 06:43:29;;;;;;;17.60;11.40;;;;;;;;;;4954979;29;20202;-88
2021/10/25 06:45:56;;;;;;;10.20;9.00;;;;;;;;;;4955231;29;20214;-87
2021/10/25 06:48:24;;;;;;;14.77;9.00;;;;;;;;;;4954846;29;20667;-87
2021/10/25 06:50:52;;;;;;;10.17;7.50;;;;;;;;;;4954580;29;20296;-87
2021/10/25 06:53:19;;;;;;;8.93;7.87;;;;;;;;;;4954831;28;20202;-86
2021/10/25 06:55:48;;;;;;;11.10;8.43;;;;;;;;;;4954927;29;20559;-87
2021/10/25 06:58:15;;;;;;;7.97;5.93;;;;;;;;;;4954560;29;20230;-87
2021/10/25 07:00:43;;;;;;;4.87;4.37;;;;;;;;;;4954372;29;20626;-87
2021/10/25 07:03:11;;;;;;;6.57;4.87;;;;;;;;;;4954638;29;20202;-87
2021/10/25 07:05:39;;;;;;;8.33;5.80;;;;;;;;;;4954559;29;20659;-87
2021/10/25 07:08:07;;;;;;;7.27;5.30;;;;;;;;;;4954327;29;20202;-87
2021/10/25 07:10:36;;;;;;;7.03;5.63;;;;;;;;;;4954510;29;20583;-87
2021/10/25 07:13:06;;;;;;;6.97;4.77;;;;;;;;;;4954501;29;20671;-87
2021/10/25 07:15:36;;;;;;;4.30;3.87;;;;;;;;;;4954153;29;20241;-86
2021/10/25 07:18:10;;;;;;;10.67;4.43;;;;;;;;;;4954266;29;20704;-87
2021/10/25 07:20:47;;;;;;;4.20;3.80;;;;;;;;;;4954058;29;20189;-86
2021/10/25 07:26:46;;;;;;;22.33;13.93;;;;;;;;;;4895440;29;20200;-87
2021/10/25 07:59:47;;;;;;;5.93;4.50;;;;;;;;;;4953810;29;20216;-88
2021/10/25 08:05:35;;;;;;;5.17;3.17;;;;;;;;;;4955057;28;20225;-87
2021/10/25 08:08:11;;;;;;;4.80;3.10;;;;;;;;;;4957523;29;20639;-88
2021/10/25 08:10:41;;;;;;;7.00;6.50;;;;;;;;;;4957371;29;20190;-87
2021/10/25 08:13:12;;;;;;;6.07;5.23;;;;;;;;;;4957551;29;20225;-87
2021/10/25 08:15:42;;;;;;;10.03;8.13;;;;;;;;;;4957216;29;20214;-87
2021/10/25 08:18:29;;;;;;;30.03;21.83;;;;;;;;;;4957783;29;20226;-87
2021/10/25 08:20:57;;;;;;;10.40;9.30;;;;;;;;;;4957332;29;20190;-88
2021/10/25 08:23:24;;;;;;;10.53;6.80;;;;;;;;;;4957330;29;20206;-87
2021/10/25 08:25:51;;;;;;;10.17;4.40;;;;;;;;;;4957356;29;20201;-88
2021/10/25 08:28:19;;;;;;;6.80;5.20;;;;;;;;;;4956776;29;20738;-87
2021/10/25 08:30:46;;;;;;;5.30;3.20;;;;;;;;;;4956660;28;20273;-87
2021/10/25 08:33:30;;;;;;;4.73;3.57;;;;;;;;;;4957359;29;20591;-87
2021/10/25 08:36:09;;;;;;;7.30;6.60;;;;;;;;;;4956950;29;20190;-87
2021/10/25 08:41:22;;;;;;;5.17;4.23;;;;;;;;;;4956958;29;20238;-88
2021/10/25 08:43:50;;;;;;;6.70;6.00;;;;;;;;;;4956885;29;20209;-86
2021/10/25 08:46:17;;;;;;;4.37;3.33;;;;;;;;;;4957331;29;20203;-88
2021/10/25 08:48:46;;;;;;;3.70;3.20;;;;;;;;;;4957124;29;20198;-88
2021/10/25 08:51:14;;;;;;;4.20;3.33;;;;;;;;;;4956851;29;20210;-88
2021/10/25 08:53:41;;;;;;;6.20;3.93;;;;;;;;;;4956673;29;20208;-88
2021/10/25 08:56:09;;;;;;;3.87;3.50;;;;;;;;;;4957097;29;20197;-89
2021/10/25 08:58:38;;;;;;;5.17;4.70;;;;;;;;;;4956611;29;20227;-88
2021/10/25 09:01:05;;;;;;;4.83;3.47;;;;;;;;;;4956537;29;20206;-88
2021/10/25 09:03:34;;;;;;;4.37;2.73;;;;;;;;;;4956802;29;20197;-89
2021/10/25 09:06:04;;;;;;;4.67;3.03;;;;;;;;;;4957042;29;20205;-89
2021/10/25 09:08:33;;;;;;;3.13;2.70;;;;;;;;;;4957017;29;20613;-88
2021/10/25 09:11:01;;;;;;;3.47;2.87;;;;;;;;;;4956261;29;20201;-88
2021/10/25 09:13:29;;;;;;;3.03;2.60;;;;;;;;;;4956436;29;20202;-88
2021/10/25 09:15:58;;;;;;;4.23;2.93;;;;;;;;;;4956250;28;20241;-88
2021/10/25 09:18:28;;;;;;;3.70;2.50;;;;;;;;;;4956107;29;20257;-88
2021/10/25 09:20:57;;;;;;;2.87;2.63;;;;;;;;;;4956571;29;20205;-86
2021/10/25 09:23:29;;;;;;;3.27;2.67;;;;;;;;;;4956543;29;20240;-87
2021/10/25 09:25:58;;;;;;;4.80;2.90;;;;;;;;;;4956672;29;20225;-86
2021/10/25 09:28:29;;;;;;;7.10;3.93;;;;;;;;;;4956602;29;20198;-88
2021/10/25 09:31:01;;;;;;;3.80;2.73;;;;;;;;;;4956046;29;20233;-87
2021/10/25 09:33:35;;;;;;;5.20;2.33;;;;;;;;;;4956025;29;20239;-87
2021/10/25 09:36:04;;;;;;;4.43;3.50;;;;;;;;;;4956357;29;20193;-86
2021/10/25 09:38:43;;;;;;;9.77;8.77;;;;;;;;;;4955834;29;20223;-87
2021/10/25 09:41:34;;;;;;;2.70;2.50;;;;;;;;;;4956286;29;20202;-88
2021/10/25 09:49:38;;;;;;;2.80;2.50;;;;;;;;;;4956069;29;20185;-86
2021/10/25 09:52:08;;;;;;;4.90;2.77;;;;;;;;;;4956032;29;20579;-88
2021/10/25 09:54:37;;;;;;;3.90;2.97;;;;;;;;;;4955905;29;20701;-87
2021/10/25 09:57:09;;;;;;;4.37;3.63;;;;;;;;;;4955531;29;20675;-89
2021/10/25 09:59:52;;;;;;;8.93;3.27;;;;;;;;;;4955919;29;20297;-88
2021/10/25 10:02:21;;;;;;;3.30;2.80;;;;;;;;;;4955956;29;20555;-86
2021/10/25 10:04:53;;;;;;;5.07;3.20;;;;;;;;;;4955414;29;20726;-87
2021/10/25 10:07:20;;;;;;;3.30;2.93;;;;;;;;;;4955626;29;20186;-87
2021/10/25 10:09:50;;;;;;;3.83;2.67;;;;;;;;;;4955512;29;20229;-87
2021/10/25 10:12:19;;;;;;;4.27;2.60;;;;;;;;;;4955488;29;20292;-87
2021/10/25 10:14:49;;;;;;;4.77;3.10;;;;;;;;;;4955724;29;20761;-87
2021/10/25 10:17:19;;;;;;;3.23;2.77;;;;;;;;;;4955829;29;20205;-87
2021/10/25 10:19:48;;;;;;;4.83;3.33;;;;;;;;;;4955299;29;20225;-87
2021/10/25 10:22:16;;;;;;;3.27;2.67;;;;;;;;;;4955477;29;20213;-88
2021/10/25 10:24:47;;;;;;;6.90;3.10;;;;;;;;;;4955131;29;20676;-88
2021/10/25 10:27:20;;;;;;;3.63;2.83;;;;;;;;;;4954949;28;20198;-88
2021/10/25 10:29:52;;;;;;;7.77;7.07;;;;;;;;;;4955458;28;20233;-88
2021/10/25 10:32:20;;;;;;;3.07;2.73;;;;;;;;;;4955122;29;20194;-87
2021/10/25 10:34:50;;;;;;;7.37;3.73;;;;;;;;;;4955353;29;20206;-87
2021/10/25 10:37:21;;;;;;;4.23;2.97;;;;;;;;;;4955633;29;20276;-89
2021/10/25 10:39:59;;;;;;;4.30;3.83;;;;;;;;;;4955120;29;20783;-88
2021/10/25 10:42:28;;;;;;;2.97;2.47;;;;;;;;;;4955377;29;20179;-88
2021/10/25 10:45:00;;;;;;;5.03;3.20;;;;;;;;;;4954970;29;20203;-87
2021/10/25 10:47:28;;;;;;;4.20;3.90;;;;;;;;;;4955143;29;20204;-88
2021/10/25 10:49:57;;;;;;;3.30;2.97;;;;;;;;;;4954995;29;20199;-89
2021/10/25 10:52:29;;;;;;;3.83;3.40;;;;;;;;;;4955228;29;20239;-89
2021/10/25 10:55:03;;;;;;;5.17;3.23;;;;;;;;;;4955341;29;20201;-88
2021/10/25 11:00:40;;;;;;;6.97;6.27;;;;;;;;;;4955074;29;20210;-90
2021/10/25 11:03:18;;;;;;;4.63;3.37;;;;;;;;;;4955184;29;20189;-88
2021/10/25 11:05:47;;;;;;;5.23;3.33;;;;;;;;;;4955227;29;20192;-89
2021/10/25 11:08:18;;;;;;;3.20;2.77;;;;;;;;;;4955138;29;20205;-88
2021/10/25 11:10:47;;;;;;;5.20;3.07;;;;;;;;;;4954895;29;20255;-90
2021/10/25 11:13:20;;;;;;;8.13;3.93;;;;;;;;;;4954785;29;20257;-89
2021/10/25 11:15:57;;;;;;;7.77;5.80;;;;;;;;;;4954746;29;20252;-89
2021/10/25 11:18:30;;;;;;;6.83;5.23;;;;;;;;;;4954783;29;20206;-88
2021/10/25 11:21:08;;;;;;;4.17;3.57;;;;;;;;;;4955222;29;20241;-89
2021/10/25 11:23:41;;;;;;;4.33;3.50;;;;;;;;;;4954707;29;20662;-89
2021/10/25 11:26:13;;;;;;;4.80;4.10;;;;;;;;;;4954663;29;20204;-89
2021/10/25 11:29:00;;;;;;;4.43;3.43;;;;;;;;;;4954836;29;20338;-88
2021/10/25 11:31:28;;;;;;;5.80;5.23;;;;;;;;;;4954577;29;20734;-89
2021/10/25 11:33:56;;;;;;;6.07;3.70;;;;;;;;;;4954511;29;20205;-89
2021/10/25 11:36:28;;;;;;;5.70;4.73;;;;;;;;;;4954460;29;20209;-89
2021/10/25 11:38:55;;;;;;;6.10;3.40;;;;;;;;;;4954784;28;20232;-89
2021/10/25 11:41:23;;;;;;;4.97;3.53;;;;;;;;;;4958267;29;20252;-88
2021/10/25 11:43:53;;;;;;;4.80;4.30;;;;;;;;;;4958669;29;20198;-89
2021/10/25 11:46:21;;;;;;;5.63;3.90;;;;;;;;;;4959067;29;20678;-88
2021/10/25 11:48:53;;;;;;;7.60;3.40;;;;;;;;;;4958330;29;20204;-89
2021/10/25 11:51:22;;;;;;;3.70;2.80;;;;;;;;;;4958840;29;20205;-88
2021/10/25 11:53:55;;;;;;;3.60;3.27;;;;;;;;;;4958637;29;20261;-89
2021/10/25 11:56:22;;;;;;;5.37;3.33;;;;;;;;;;4958380;29;20210;-88
2021/10/25 11:58:51;;;;;;;7.57;3.23;;;;;;;;;;4958416;29;20613;-89
2021/10/25 12:01:19;;;;;;;4.20;3.20;;;;;;;;;;4958499;29;20206;-89
2021/10/25 12:03:46;;;;;;;4.83;2.90;;;;;;;;;;4958047;29;20206;-88
2021/10/25 12:06:18;;;;;;;3.77;3.27;;;;;;;;;;4958109;29;20284;-88
2021/10/25 12:09:04;;;;;;;3.60;3.30;;;;;;;;;;4958223;29;20758;-89
2021/10/25 12:11:53;;;;;;;6.17;3.50;;;;;;;;;;4958011;29;20186;-89
2021/10/25 12:14:26;;;;;;;3.23;2.93;;;;;;;;;;4957911;29;20280;-90
2021/10/25 12:16:54;;;;;;;3.60;3.30;;;;;;;;;;4958199;29;20204;-89
2021/10/25 12:19:22;;;;;;;6.13;4.70;;;;;;;;;;4957759;29;20773;-89
2021/10/25 12:21:49;;;;;;;5.67;3.53;;;;;;;;;;4957858;29;20206;-89
2021/10/25 12:24:19;;;;;;;4.63;2.57;;;;;;;;;;4957954;29;20205;-89
2021/10/25 12:26:57;;;;;;;3.17;2.87;;;;;;;;;;4957695;29;20209;-88
2021/10/25 12:29:26;;;;;;;5.73;3.83;;;;;;;;;;4957516;29;20202;-89
2021/10/25 12:31:53;;;;;;;3.67;3.17;;;;;;;;;;4958093;29;20187;-88
2021/10/25 12:34:20;;;;;;;5.10;4.60;;;;;;;;;;4957943;29;20202;-89
2021/10/25 12:36:48;;;;;;;10.90;8.67;;;;;;;;;;4957384;29;20257;-89
2021/10/25 12:39:17;;;;;;;5.70;3.60;;;;;;;;;;4957303;29;20229;-89
2021/10/25 12:41:50;;;;;;;6.50;4.73;;;;;;;;;;4957327;29;20202;-89
2021/10/25 12:44:31;;;;;;;10.27;6.43;;;;;;;;;;4957727;29;20206;-88
2021/10/25 12:47:07;;;;;;;8.67;7.47;;;;;;;;;;4957551;29;20191;-89
2021/10/25 12:49:34;;;;;;;7.23;5.47;;;;;;;;;;4957425;29;20591;-88
2021/10/25 12:52:06;;;;;;;3.97;3.57;;;;;;;;;;4957029;28;20559;-88
2021/10/25 12:54:35;;;;;;;7.33;5.13;;;;;;;;;;4957257;29;20205;-87
2021/10/25 12:57:05;;;;;;;7.40;4.03;;;;;;;;;;4957311;29;20202;-89
2021/10/25 12:59:34;;;;;;;5.37;3.07;;;;;;;;;;4957607;29;20224;-89
2021/10/25 13:02:02;;;;;;;3.93;3.10;;;;;;;;;;4956987;29;20205;-89
2021/10/25 13:04:30;;;;;;;3.40;3.10;;;;;;;;;;4956921;29;20217;-89
2021/10/25 13:07:08;;;;;;;3.40;2.90;;;;;;;;;;4956897;29;20213;-89
2021/10/25 13:09:47;;;;;;;4.07;3.20;;;;;;;;;;4957073;29;20264;-88
2021/10/25 13:12:14;;;;;;;3.97;3.50;;;;;;;;;;4957238;29;20567;-88
2021/10/25 13:14:43;;;;;;;4.00;3.67;;;;;;;;;;4956731;29;20206;-89
2021/10/25 13:17:11;;;;;;;5.20;2.93;;;;;;;;;;4956631;29;20292;-89
2021/10/25 13:19:39;;;;;;;5.33;3.47;;;;;;;;;;4956496;29;20237;-88
2021/10/25 13:22:06;;;;;;;3.70;2.83;;;;;;;;;;4957137;29;20272;-88
2021/10/25 13:24:34;;;;;;;5.47;4.23;;;;;;;;;;4956688;29;20201;-89
2021/10/25 13:27:01;;;;;;;9.90;7.67;;;;;;;;;;4956520;29;20198;-90
2021/10/25 13:29:28;;;;;;;12.37;8.13;;;;;;;;;;4956127;28;20226;-88
2021/10/25 13:31:57;;;;;;;7.97;6.70;;;;;;;;;;4956710;29;20246;-88
2021/10/25 13:34:24;;;;;;;3.37;3.07;;;;;;;;;;4956391;29;20202;-89
2021/10/25 13:36:51;;;;;;;8.70;6.00;;;;;;;;;;4956991;29;20239;-89
2021/10/25 13:39:20;;;;;;;7.70;4.00;;;;;;;;;;4956229;29;20276;-88
2021/10/25 13:41:48;;;;;;;6.23;4.60;;;;;;;;;;4956531;29;20210;-88
2021/10/25 13:44:15;;;;;;;12.10;10.83;;;;;;;;;;4956183;29;20208;-89
2021/10/25 13:46:43;;;;;;;5.23;4.73;;;;;;;;;;4956071;29;20205;-87
2021/10/25 13:49:11;;;;;;;17.40;4.97;;;;;;;;;;4956593;29;20201;-88
2021/10/25 13:51:39;;;;;;;4.87;3.57;;;;;;;;;;4956203;29;20198;-88
2021/10/25 13:54:06;;;;;;;5.23;4.00;;;;;;;;;;4955977;29;20205;-88
2021/10/25 13:56:35;;;;;;;9.87;8.83;;;;;;;;;;4956193;29;20634;-88
2021/10/25 13:59:02;;;;;;;5.90;5.07;;;;;;;;;;4956282;29;20209;-88
2021/10/25 14:01:31;;;;;;;4.20;3.47;;;;;;;;;;4955700;28;20259;-87
2021/10/25 14:03:58;;;;;;;10.63;9.57;;;;;;;;;;4955679;29;20228;-88
2021/10/25 14:06:29;;;;;;;8.07;6.40;;;;;;;;;;4955780;29;20662;-88
2021/10/25 14:08:57;;;;;;;5.83;4.57;;;;;;;;;;4955945;29;20566;-88
2021/10/25 14:11:27;;;;;;;6.10;5.50;;;;;;;;;;4955688;29;20195;-87
2021/10/25 14:16:37;;;;;;;15.30;10.87;;;;;;;;;;4953090;28;20303;-88
2021/10/25 14:19:07;;;;;;;7.60;6.17;;;;;;;;;;4955776;29;20679;-88
2021/10/25 14:21:36;;;;;;;7.37;5.70;;;;;;;;;;4955712;29;20233;-88
2021/10/25 14:24:05;;;;;;;7.30;4.37;;;;;;;;;;4955463;29;20262;-87
2021/10/25 14:26:33;;;;;;;11.50;8.70;;;;;;;;;;4955479;29;20205;-88
2021/10/25 14:29:00;;;;;;;7.73;5.47;;;;;;;;;;4955226;29;20201;-88
2021/10/25 14:31:27;;;;;;;4.83;4.40;;;;;;;;;;4955155;29;20644;-88
2021/10/25 14:33:57;;;;;;;7.20;4.40;;;;;;;;;;4955550;29;20289;-88
2021/10/25 14:36:24;;;;;;;11.13;7.17;;;;;;;;;;4955165;29;20225;-89
2021/10/25 14:41:49;;;;;;;7.40;6.70;;;;;;;;;;4945321;28;20237;-88
2021/10/25 14:44:33;;;;;;;8.10;5.63;;;;;;;;;;4955028;29;20209;-89
2021/10/25 14:47:08;;;;;;;8.53;7.13;;;;;;;;;;4955379;29;20182;-89
2021/10/25 14:55:10;;;;;;;10.90;8.47;;;;;;;;;;4955324;29;20188;-89
2021/10/25 14:57:38;;;;;;;19.03;13.77;;;;;;;;;;4954154;29;20200;-89
2021/10/25 15:00:07;;;;;;;28.27;19.63;;;;;;;;;;4954920;29;20260;-89
2021/10/25 15:02:35;;;;;;;29.33;22.10;;;;;;;;;;4954987;29;20639;-89
2021/10/25 15:05:07;;;;;;;28.63;21.87;;;;;;;;;;4955100;29;20207;-89
2021/10/25 15:07:35;;;;;;;34.60;22.57;;;;;;;;;;4955121;29;20276;-89
2021/10/25 15:10:02;;;;;;;18.47;14.13;;;;;;;;;;4954863;29;20291;-88
2021/10/25 15:12:31;;;;;;;33.13;24.17;;;;;;;;;;4954652;29;20679;-90
2021/10/25 15:14:58;;;;;;;43.00;32.77;;;;;;;;;;4954476;28;20208;-88
2021/10/25 15:17:25;;;;;;;30.10;22.80;;;;;;;;;;4954781;29;20290;-88
2021/10/25 15:19:53;;;;;;;15.50;13.47;;;;;;;;;;4954667;29;20207;-88
2021/10/25 15:22:20;;;;;;;18.03;14.83;;;;;;;;;;4954572;29;20769;-89
2021/10/25 15:24:50;;;;;;;57.00;41.27;;;;;;;;;;4954775;29;20240;-89
2021/10/25 15:27:19;;;;;;;34.03;27.30;;;;;;;;;;4955053;29;20233;-89
2021/10/25 15:29:49;;;;;;;56.37;44.40;;;;;;;;;;4954188;29;20237;-89
2021/10/25 15:32:20;;;;;;;33.73;28.43;;;;;;;;;;4955377;29;20186;-89
2021/10/25 15:34:49;;;;;;;14.63;13.17;;;;;;;;;;4954655;29;20194;-89
2021/10/25 15:37:18;;;;;;;12.00;10.90;;;;;;;;;;4954539;29;20632;-89
2021/10/25 15:39:45;;;;;;;13.50;12.10;;;;;;;;;;4954383;29;20237;-90
2021/10/25 15:42:14;;;;;;;5.73;5.23;;;;;;;;;;4954301;29;20266;-89
2021/10/25 15:44:43;;;;;;;9.27;6.90;;;;;;;;;;4954330;29;20253;-89
2021/10/25 15:50:01;;;;;;;29.20;16.97;;;;;;;;;;4947952;29;20205;-89
2021/10/25 15:52:29;;;;;;;94.73;49.77;;;;;;;;;;4954881;29;20209;-89
2021/10/25 15:54:57;;;;;;;96.40;51.73;;;;;;;;;;4954525;29;20284;-89
2021/10/25 15:57:25;;;;;;;82.70;48.30;;;;;;;;;;4954638;29;20202;-87
2021/10/25 15:59:53;;;;;;;45.07;32.63;;;;;;;;;;4954401;29;20198;-89
2021/10/25 16:02:23;;;;;;;17.87;16.03;;;;;;;;;;4955204;29;20233;-89
2021/10/25 16:04:51;;;;;;;10.37;9.33;;;;;;;;;;4954192;29;20209;-89
2021/10/25 16:07:18;;;;;;;13.40;12.20;;;;;;;;;;4954224;29;20198;-88
2021/10/25 16:09:46;;;;;;;13.27;11.83;;;;;;;;;;4954353;29;20293;-89
2021/10/25 16:12:16;;;;;;;19.30;16.07;;;;;;;;;;4954022;29;20202;-89
2021/10/25 16:14:44;;;;;;;8.87;7.63;;;;;;;;;;4954149;29;20667;-89
2021/10/25 16:17:12;;;;;;;22.97;14.90;;;;;;;;;;4954047;29;20244;-89